Time;durP1;ratioP1;P1;durP2;ratioP2;P2;SDS_P1;SDS_P2;PMS_P1;PMS_P2;Temp;Humidity;BMP_temperature;BMP_pressure;BME280_temperature;BME280_humidity;BME280_pressure;Samples;Min_cycle;Max_cycle;Signal;HPM_P1;HPM_P2
2023/12/06 00:02:14;;;;;;;24.17;15.98;;;;;;;;;;6196784;23;20012;-85
2023/12/06 00:04:40;;;;;;;23.73;15.48;;;;;;;;;;6196388;23;20488;-85
2023/12/06 00:07:06;;;;;;;24.05;15.85;;;;;;;;;;6195959;23;20016;-85
2023/12/06 00:09:33;;;;;;;23.58;16.40;;;;;;;;;;6196898;23;20016;-85
2023/12/06 00:11:59;;;;;;;22.85;15.18;;;;;;;;;;6197135;23;20449;-85
2023/12/06 00:14:25;;;;;;;21.77;14.50;;;;;;;;;;6196850;23;20015;-85
2023/12/06 00:16:51;;;;;;;21.48;15.18;;;;;;;;;;6197337;23;20061;-85
2023/12/06 00:19:17;;;;;;;22.75;15.05;;;;;;;;;;6196379;23;20030;-85
2023/12/06 00:21:43;;;;;;;21.48;15.98;;;;;;;;;;6197340;23;20020;-85
2023/12/06 00:24:09;;;;;;;24.27;14.95;;;;;;;;;;6196241;23;20016;-85
2023/12/06 00:26:35;;;;;;;22.77;15.57;;;;;;;;;;6196134;23;20379;-85
2023/12/06 00:29:02;;;;;;;23.42;14.95;;;;;;;;;;6195662;23;20353;-85
2023/12/06 00:31:28;;;;;;;24.27;15.15;;;;;;;;;;6196109;23;20024;-85
2023/12/06 00:33:54;;;;;;;22.83;16.48;;;;;;;;;;6196126;23;20016;-85
2023/12/06 00:36:20;;;;;;;24.17;15.23;;;;;;;;;;6196017;23;20020;-85
2023/12/06 00:38:48;;;;;;;25.17;16.63;;;;;;;;;;6196856;23;20035;-85
2023/12/06 00:41:15;;;;;;;21.58;14.55;;;;;;;;;;6222082;23;20070;-85
2023/12/06 00:43:41;;;;;;;20.77;14.35;;;;;;;;;;6196045;23;20024;-85
2023/12/06 00:46:07;;;;;;;20.88;14.13;;;;;;;;;;6221351;23;20092;-85
2023/12/06 00:48:33;;;;;;;20.50;13.90;;;;;;;;;;6196796;23;20023;-85
2023/12/06 00:51:01;;;;;;;21.17;13.68;;;;;;;;;;6196132;23;20035;-85
2023/12/06 00:53:28;;;;;;;22.52;14.27;;;;;;;;;;6196218;23;20023;-86
2023/12/06 00:55:54;;;;;;;23.50;14.40;;;;;;;;;;6196522;23;20012;-85
2023/12/06 00:58:20;;;;;;;25.08;14.23;;;;;;;;;;6196161;23;20447;-86
2023/12/06 01:00:47;;;;;;;20.05;14.02;;;;;;;;;;6195741;23;20047;-86
2023/12/06 01:03:13;;;;;;;22.05;12.88;;;;;;;;;;6195387;23;20023;-86
2023/12/06 01:05:39;;;;;;;19.40;13.27;;;;;;;;;;6196129;23;20016;-86
2023/12/06 01:08:05;;;;;;;17.73;12.18;;;;;;;;;;6195735;23;20054;-86
2023/12/06 01:10:31;;;;;;;18.23;11.98;;;;;;;;;;6221892;23;20020;-85
2023/12/06 01:12:57;;;;;;;18.60;12.05;;;;;;;;;;6198261;23;20039;-85
2023/12/06 01:15:24;;;;;;;16.00;11.18;;;;;;;;;;6222582;23;20012;-85
2023/12/06 01:17:50;;;;;;;15.57;11.57;;;;;;;;;;6203550;23;20341;-85
2023/12/06 01:20:16;;;;;;;17.30;11.43;;;;;;;;;;6208666;23;20047;-85
2023/12/06 01:22:42;;;;;;;16.40;11.70;;;;;;;;;;6207942;23;20012;-85
2023/12/06 01:25:08;;;;;;;20.40;12.57;;;;;;;;;;6225333;23;20020;-85
2023/12/06 01:27:35;;;;;;;16.55;11.75;;;;;;;;;;6196211;23;20024;-86
2023/12/06 01:30:02;;;;;;;18.08;12.02;;;;;;;;;;6195611;23;20020;-85
2023/12/06 01:32:28;;;;;;;16.13;11.80;;;;;;;;;;6197226;23;20016;-85
2023/12/06 01:34:54;;;;;;;19.17;12.45;;;;;;;;;;6196347;23;20016;-85
2023/12/06 01:37:21;;;;;;;17.48;12.38;;;;;;;;;;6196347;23;20029;-85
2023/12/06 01:39:47;;;;;;;16.33;11.82;;;;;;;;;;6195203;23;20028;-85
2023/12/06 01:42:13;;;;;;;17.75;12.35;;;;;;;;;;6220598;23;20384;-85
2023/12/06 01:44:39;;;;;;;15.07;11.95;;;;;;;;;;6195841;23;20071;-85
2023/12/06 01:47:06;;;;;;;15.43;11.90;;;;;;;;;;6221858;23;20051;-85
2023/12/06 01:49:32;;;;;;;15.48;11.50;;;;;;;;;;6195848;23;20468;-85
2023/12/06 01:51:58;;;;;;;17.88;12.00;;;;;;;;;;6221135;23;20016;-85
2023/12/06 01:54:26;;;;;;;16.92;11.50;;;;;;;;;;6196379;23;20012;-85
2023/12/06 01:56:53;;;;;;;16.73;11.77;;;;;;;;;;6196238;23;20107;-85
2023/12/06 01:59:20;;;;;;;15.02;11.02;;;;;;;;;;6197007;23;20060;-85
2023/12/06 02:01:46;;;;;;;17.52;12.20;;;;;;;;;;6222908;23;20320;-85
2023/12/06 02:04:12;;;;;;;16.10;11.32;;;;;;;;;;6197268;23;20481;-85
2023/12/06 02:06:39;;;;;;;17.45;12.48;;;;;;;;;;6221572;23;20016;-85
2023/12/06 02:09:06;;;;;;;16.33;11.32;;;;;;;;;;6195736;23;20042;-85
2023/12/06 02:11:32;;;;;;;18.40;12.02;;;;;;;;;;6195476;23;20463;-85
2023/12/06 02:13:58;;;;;;;18.70;11.68;;;;;;;;;;6195923;23;20386;-85
2023/12/06 02:16:24;;;;;;;17.73;12.52;;;;;;;;;;6220921;23;20035;-85
2023/12/06 02:18:50;;;;;;;21.23;12.73;;;;;;;;;;6196295;23;20055;-85
2023/12/06 02:21:17;;;;;;;20.77;12.88;;;;;;;;;;6196017;23;20018;-85
2023/12/06 02:23:44;;;;;;;19.08;13.95;;;;;;;;;;6220216;23;20099;-85
2023/12/06 02:26:10;;;;;;;17.05;12.73;;;;;;;;;;6196269;23;20038;-85
2023/12/06 02:28:36;;;;;;;21.02;14.15;;;;;;;;;;6196178;23;20141;-85
2023/12/06 02:31:03;;;;;;;24.38;14.13;;;;;;;;;;6198132;23;20429;-85
2023/12/06 02:33:30;;;;;;;20.17;13.75;;;;;;;;;;6198545;23;20023;-85
2023/12/06 02:35:58;;;;;;;23.20;14.25;;;;;;;;;;6223108;23;20023;-85
2023/12/06 02:38:24;;;;;;;20.10;13.80;;;;;;;;;;6198303;23;20031;-85
2023/12/06 02:40:51;;;;;;;22.75;14.43;;;;;;;;;;6198161;23;20020;-85
2023/12/06 02:43:20;;;;;;;21.35;13.65;;;;;;;;;;6197369;23;20016;-85
2023/12/06 02:45:46;;;;;;;22.10;14.55;;;;;;;;;;6197905;23;20026;-85
2023/12/06 02:48:12;;;;;;;19.20;13.68;;;;;;;;;;6196749;23;20066;-85
2023/12/06 02:50:38;;;;;;;17.80;12.43;;;;;;;;;;6196334;23;20023;-86
2023/12/06 02:53:04;;;;;;;19.60;11.23;;;;;;;;;;6195712;23;20016;-86
2023/12/06 02:55:30;;;;;;;14.80;10.60;;;;;;;;;;6220942;23;20016;-86
2023/12/06 02:57:56;;;;;;;15.52;10.57;;;;;;;;;;6195434;23;20020;-86
2023/12/06 03:00:25;;;;;;;16.23;10.90;;;;;;;;;;6220083;23;20016;-85
2023/12/06 03:02:51;;;;;;;14.77;10.23;;;;;;;;;;6195800;23;20465;-86
2023/12/06 03:05:17;;;;;;;14.25;10.52;;;;;;;;;;6195470;23;20058;-86
2023/12/06 03:07:43;;;;;;;12.57;10.18;;;;;;;;;;6195406;23;20420;-86
2023/12/06 03:10:09;;;;;;;13.88;9.57;;;;;;;;;;6220228;23;20023;-86
2023/12/06 03:12:35;;;;;;;14.05;10.27;;;;;;;;;;6195289;23;20020;-86
2023/12/06 03:15:02;;;;;;;11.02;8.70;;;;;;;;;;6195069;23;20074;-86
2023/12/06 03:17:28;;;;;;;11.38;8.95;;;;;;;;;;6195644;23;20020;-86
2023/12/06 03:19:54;;;;;;;11.27;7.95;;;;;;;;;;6195275;23;20441;-86
2023/12/06 03:22:20;;;;;;;12.57;8.85;;;;;;;;;;6195517;23;20103;-86
2023/12/06 03:24:46;;;;;;;10.48;9.02;;;;;;;;;;6196394;23;20016;-86
2023/12/06 03:27:12;;;;;;;11.63;9.27;;;;;;;;;;6196484;23;20016;-86
2023/12/06 03:29:38;;;;;;;12.82;10.10;;;;;;;;;;6197225;23;20042;-86
2023/12/06 03:32:04;;;;;;;12.00;9.20;;;;;;;;;;6196325;23;20016;-86
2023/12/06 03:34:31;;;;;;;10.60;8.57;;;;;;;;;;6195832;23;20020;-86
2023/12/06 03:36:58;;;;;;;11.40;8.23;;;;;;;;;;6220165;23;20071;-86
2023/12/06 03:39:26;;;;;;;10.85;8.52;;;;;;;;;;6194493;23;20453;-85
2023/12/06 03:41:52;;;;;;;10.13;8.18;;;;;;;;;;6194771;23;20348;-86
2023/12/06 03:44:20;;;;;;;11.38;8.43;;;;;;;;;;6219662;23;20024;-86
2023/12/06 03:46:46;;;;;;;10.90;8.63;;;;;;;;;;6219678;23;20016;-86
2023/12/06 03:49:12;;;;;;;10.98;8.82;;;;;;;;;;6194805;23;20016;-86
2023/12/06 03:51:38;;;;;;;11.32;8.85;;;;;;;;;;6194849;23;20349;-86
2023/12/06 03:54:05;;;;;;;12.20;8.38;;;;;;;;;;6194395;23;20020;-86
2023/12/06 03:56:31;;;;;;;9.80;7.82;;;;;;;;;;6194873;23;20024;-86
2023/12/06 03:58:57;;;;;;;9.30;7.93;;;;;;;;;;6194804;23;20020;-86
2023/12/06 04:01:24;;;;;;;10.80;7.55;;;;;;;;;;6194794;23;20019;-86
2023/12/06 04:03:50;;;;;;;11.30;8.65;;;;;;;;;;6194577;23;20061;-86
2023/12/06 04:06:16;;;;;;;11.88;9.27;;;;;;;;;;6194789;23;20322;-86
2023/12/06 04:08:42;;;;;;;15.00;9.00;;;;;;;;;;6194813;23;20330;-86
2023/12/06 04:11:08;;;;;;;13.55;9.00;;;;;;;;;;6195537;23;20098;-86
2023/12/06 04:13:34;;;;;;;12.77;8.90;;;;;;;;;;6194492;23;20091;-86
2023/12/06 04:16:00;;;;;;;13.05;9.98;;;;;;;;;;6195031;23;20022;-86
2023/12/06 04:18:29;;;;;;;13.43;9.02;;;;;;;;;;6219965;23;20070;-86
2023/12/06 04:20:55;;;;;;;11.63;8.70;;;;;;;;;;6195040;23;20062;-86
2023/12/06 04:23:21;;;;;;;13.05;9.27;;;;;;;;;;6194187;23;20314;-86
2023/12/06 04:25:47;;;;;;;12.50;9.40;;;;;;;;;;6194758;23;20016;-86
2023/12/06 04:28:14;;;;;;;13.32;9.48;;;;;;;;;;6194768;23;20035;-86
2023/12/06 04:30:40;;;;;;;13.25;10.93;;;;;;;;;;6219877;23;20026;-86
2023/12/06 04:33:09;;;;;;;12.80;9.90;;;;;;;;;;6194401;23;20338;-86
2023/12/06 04:35:35;;;;;;;12.63;9.63;;;;;;;;;;6194446;23;20409;-86
2023/12/06 04:38:01;;;;;;;12.95;9.95;;;;;;;;;;6193952;23;20024;-86
2023/12/06 04:40:27;;;;;;;13.55;9.65;;;;;;;;;;6194441;23;20016;-86
2023/12/06 04:42:53;;;;;;;15.98;10.50;;;;;;;;;;6194205;23;20039;-86
2023/12/06 04:45:19;;;;;;;15.18;10.27;;;;;;;;;;6195507;23;20023;-87
2023/12/06 04:47:46;;;;;;;13.13;9.90;;;;;;;;;;6195453;23;20012;-86
2023/12/06 04:50:12;;;;;;;15.68;11.32;;;;;;;;;;6194397;23;20024;-87
2023/12/06 04:52:38;;;;;;;13.77;10.23;;;;;;;;;;6194044;23;20020;-86
2023/12/06 04:55:04;;;;;;;14.32;9.90;;;;;;;;;;6194366;23;20333;-86
2023/12/06 04:57:30;;;;;;;12.45;10.20;;;;;;;;;;6194155;23;20019;-86
2023/12/06 04:59:57;;;;;;;13.82;10.82;;;;;;;;;;6194431;23;20020;-86
2023/12/06 05:02:23;;;;;;;12.48;9.70;;;;;;;;;;6194429;23;20098;-86
2023/12/06 05:04:52;;;;;;;13.82;10.32;;;;;;;;;;6194243;23;20027;-86
2023/12/06 05:07:18;;;;;;;16.27;10.90;;;;;;;;;;6194465;23;20027;-86
2023/12/06 05:09:44;;;;;;;14.23;9.85;;;;;;;;;;6194193;23;20020;-86
2023/12/06 05:12:13;;;;;;;11.85;9.70;;;;;;;;;;6194255;23;20012;-86
2023/12/06 05:14:41;;;;;;;12.68;9.15;;;;;;;;;;6194078;23;20016;-86
2023/12/06 05:17:07;;;;;;;16.77;10.98;;;;;;;;;;6194676;23;20016;-86
2023/12/06 05:19:33;;;;;;;14.25;10.93;;;;;;;;;;6194092;23;20016;-86
2023/12/06 05:22:02;;;;;;;15.63;11.23;;;;;;;;;;6194358;23;20106;-87
2023/12/06 05:24:28;;;;;;;16.40;10.50;;;;;;;;;;6194323;23;20046;-86
2023/12/06 05:26:54;;;;;;;13.43;9.63;;;;;;;;;;6193950;23;20456;-86
2023/12/06 05:29:20;;;;;;;12.65;10.30;;;;;;;;;;6193818;23;20336;-86
2023/12/06 05:31:47;;;;;;;13.55;10.43;;;;;;;;;;6197182;23;20016;-86
2023/12/06 05:34:15;;;;;;;12.48;9.50;;;;;;;;;;6222305;23;20391;-86
2023/12/06 05:36:43;;;;;;;10.82;8.20;;;;;;;;;;6201146;23;20016;-86
2023/12/06 05:39:10;;;;;;;12.70;8.50;;;;;;;;;;6194586;23;20020;-86
2023/12/06 05:41:36;;;;;;;13.15;9.45;;;;;;;;;;6193931;23;20020;-86
2023/12/06 05:44:06;;;;;;;12.68;9.25;;;;;;;;;;6193661;23;20012;-86
2023/12/06 05:46:32;;;;;;;15.13;10.05;;;;;;;;;;6193690;23;20055;-86
2023/12/06 05:48:58;;;;;;;12.60;10.10;;;;;;;;;;6193912;23;20034;-86
2023/12/06 05:51:24;;;;;;;14.77;10.20;;;;;;;;;;6194002;23;20531;-86
2023/12/06 05:53:50;;;;;;;14.43;10.35;;;;;;;;;;6193932;23;20023;-86
2023/12/06 05:56:17;;;;;;;13.75;10.30;;;;;;;;;;6193838;23;20023;-86
2023/12/06 05:58:43;;;;;;;14.45;11.10;;;;;;;;;;6193556;23;20019;-87
2023/12/06 06:01:09;;;;;;;12.93;9.63;;;;;;;;;;6193950;23;20016;-87
2023/12/06 06:03:35;;;;;;;15.80;11.50;;;;;;;;;;6194121;23;20358;-87
2023/12/06 06:06:08;;;;;;;15.10;11.02;;;;;;;;;;6196754;23;20016;-87
2023/12/06 06:08:35;;;;;;;14.00;10.43;;;;;;;;;;6195815;23;20464;-87
2023/12/06 06:11:07;;;;;;;14.70;10.85;;;;;;;;;;6196296;23;20017;-86
2023/12/06 06:13:33;;;;;;;14.55;10.23;;;;;;;;;;6195991;23;20052;-87
2023/12/06 06:15:59;;;;;;;16.20;10.52;;;;;;;;;;6195462;23;20012;-87
2023/12/06 06:18:27;;;;;;;11.90;9.52;;;;;;;;;;6196029;23;20484;-86
2023/12/06 06:20:54;;;;;;;14.32;9.90;;;;;;;;;;6196113;23;20309;-86
2023/12/06 06:23:20;;;;;;;13.48;10.05;;;;;;;;;;6195582;23;20018;-86
2023/12/06 06:25:46;;;;;;;15.38;9.65;;;;;;;;;;6195470;23;20016;-86
2023/12/06 06:28:12;;;;;;;16.10;9.52;;;;;;;;;;6195395;23;20027;-86
2023/12/06 06:30:38;;;;;;;14.80;9.98;;;;;;;;;;6196002;23;20082;-86
2023/12/06 06:33:05;;;;;;;15.65;11.70;;;;;;;;;;6195776;23;20024;-86
2023/12/06 06:35:34;;;;;;;14.80;9.77;;;;;;;;;;6195229;23;20087;-86
2023/12/06 06:38:01;;;;;;;15.82;9.98;;;;;;;;;;6195672;23;20058;-86
2023/12/06 06:40:35;;;;;;;14.45;10.13;;;;;;;;;;6196469;23;20020;-87
2023/12/06 06:43:09;;;;;;;13.52;9.95;;;;;;;;;;6195582;23;20468;-86
2023/12/06 06:45:44;;;;;;;12.63;9.65;;;;;;;;;;6195622;23;20016;-87
2023/12/06 06:48:21;;;;;;;13.65;9.98;;;;;;;;;;6194925;23;20016;-87
2023/12/06 06:50:47;;;;;;;13.98;9.63;;;;;;;;;;6194897;23;20334;-86
2023/12/06 06:53:21;;;;;;;12.10;8.27;;;;;;;;;;6195022;23;20024;-86
2023/12/06 06:55:50;;;;;;;14.68;9.90;;;;;;;;;;6194550;23;20013;-86
2023/12/06 06:58:24;;;;;;;12.15;9.32;;;;;;;;;;6195100;23;20020;-86
2023/12/06 07:00:53;;;;;;;;;;;;;;;;;;6196494;23;20027;-86
2023/12/06 07:03:19;;;;;;;16.05;10.50;;;;;;;;;;6195068;23;19915;-86
2023/12/06 07:05:47;;;;;;;11.15;9.20;;;;;;;;;;6195575;23;20022;-86
2023/12/06 07:08:13;;;;;;;13.43;9.50;;;;;;;;;;6193156;23;20519;-86
2023/12/06 07:10:40;;;;;;;10.65;8.23;;;;;;;;;;6194571;23;20012;-87
2023/12/06 07:13:06;;;;;;;11.77;8.30;;;;;;;;;;6220779;23;20408;-87
2023/12/06 07:15:32;;;;;;;13.82;8.43;;;;;;;;;;6194643;23;20090;-86
2023/12/06 07:17:59;;;;;;;12.00;9.13;;;;;;;;;;6194663;23;20099;-86
2023/12/06 07:20:25;;;;;;;12.48;9.15;;;;;;;;;;6194880;23;20053;-86
2023/12/06 07:22:56;;;;;;;12.80;8.35;;;;;;;;;;6194833;23;20016;-86
2023/12/06 07:25:25;;;;;;;12.55;8.70;;;;;;;;;;6195422;23;20073;-87
2023/12/06 07:27:57;;;;;;;15.55;9.23;;;;;;;;;;6194803;23;20020;-87
2023/12/06 07:30:23;;;;;;;11.85;8.45;;;;;;;;;;6194502;23;20023;-86
2023/12/06 07:32:52;;;;;;;10.90;8.68;;;;;;;;;;6195070;23;20460;-86
2023/12/06 07:35:18;;;;;;;13.10;9.35;;;;;;;;;;6194679;23;20318;-85
2023/12/06 07:37:45;;;;;;;11.10;8.65;;;;;;;;;;6195196;23;20022;-88
2023/12/06 07:40:13;;;;;;;14.35;9.25;;;;;;;;;;6200896;23;20072;-86
2023/12/06 07:42:41;;;;;;;12.50;8.70;;;;;;;;;;6205278;23;20130;-87
2023/12/06 07:45:13;;;;;;;11.55;9.35;;;;;;;;;;6227325;23;20453;-87
2023/12/06 07:47:39;;;;;;;14.45;8.80;;;;;;;;;;6195197;23;20020;-86
2023/12/06 07:50:07;;;;;;;13.68;8.77;;;;;;;;;;6194790;23;20016;-86
2023/12/06 07:52:33;;;;;;;14.07;8.65;;;;;;;;;;6193583;23;20289;-85
2023/12/06 07:55:00;;;;;;;11.73;9.05;;;;;;;;;;6193902;23;20016;-85
2023/12/06 07:57:28;;;;;;;14.45;9.63;;;;;;;;;;6194040;23;20078;-85
2023/12/06 07:59:58;;;;;;;14.43;9.05;;;;;;;;;;6194683;23;20022;-85
2023/12/06 08:02:24;;;;;;;14.48;9.65;;;;;;;;;;6194439;23;20020;-85
2023/12/06 08:04:50;;;;;;;13.23;9.70;;;;;;;;;;6194111;23;20016;-85
2023/12/06 08:07:17;;;;;;;14.88;9.95;;;;;;;;;;6194514;23;20016;-85
2023/12/06 08:09:43;;;;;;;14.15;10.02;;;;;;;;;;6194716;23;20055;-86
2023/12/06 08:12:09;;;;;;;17.77;10.23;;;;;;;;;;6194349;23;20012;-85
2023/12/06 08:14:43;;;;;;;16.85;10.10;;;;;;;;;;6194802;23;20515;-88
2023/12/06 08:17:09;;;;;;;17.85;10.65;;;;;;;;;;6194390;23;20020;-87
2023/12/06 08:19:36;;;;;;;12.57;10.23;;;;;;;;;;6194611;23;20066;-87
2023/12/06 08:22:02;;;;;;;13.88;9.70;;;;;;;;;;6195657;23;20012;-86
2023/12/06 08:24:28;;;;;;;17.05;9.57;;;;;;;;;;6194616;23;20020;-86
2023/12/06 08:26:54;;;;;;;15.02;10.55;;;;;;;;;;6193838;23;20457;-86
2023/12/06 08:29:20;;;;;;;14.02;8.85;;;;;;;;;;6194443;23;20095;-85
2023/12/06 08:31:46;;;;;;;10.07;7.22;;;;;;;;;;6194461;23;20094;-88
2023/12/06 08:34:12;;;;;;;10.55;8.40;;;;;;;;;;6193852;23;20104;-86
2023/12/06 08:36:42;;;;;;;13.70;9.68;;;;;;;;;;6194257;23;20099;-85
2023/12/06 08:39:08;;;;;;;12.73;9.43;;;;;;;;;;6195226;23;20063;-86
2023/12/06 08:41:37;;;;;;;15.15;11.35;;;;;;;;;;6195414;23;20020;-87
2023/12/06 08:44:04;;;;;;;11.80;9.10;;;;;;;;;;6195857;23;20469;-85
2023/12/06 08:46:33;;;;;;;14.20;10.32;;;;;;;;;;6248641;23;20020;-85
2023/12/06 08:48:59;;;;;;;13.98;9.55;;;;;;;;;;6247981;23;20014;-86
2023/12/06 08:51:25;;;;;;;12.02;9.57;;;;;;;;;;6196540;23;20012;-86
2023/12/06 08:53:52;;;;;;;12.10;9.63;;;;;;;;;;6198993;23;20027;-85
2023/12/06 08:56:18;;;;;;;13.57;9.10;;;;;;;;;;6197587;23;20017;-85
2023/12/06 08:58:44;;;;;;;10.73;8.75;;;;;;;;;;6196901;23;20322;-85
2023/12/06 09:01:10;;;;;;;12.45;7.93;;;;;;;;;;6221083;23;20091;-86
2023/12/06 09:03:36;;;;;;;9.98;7.85;;;;;;;;;;6221200;23;20016;-85
2023/12/06 09:06:02;;;;;;;11.65;7.85;;;;;;;;;;6194788;23;20023;-85
2023/12/06 09:08:29;;;;;;;10.20;8.57;;;;;;;;;;6195220;23;20020;-85
2023/12/06 09:10:55;;;;;;;8.90;7.72;;;;;;;;;;6246936;23;20342;-86
2023/12/06 09:13:30;;;;;;;12.57;8.30;;;;;;;;;;6196011;23;20016;-86
2023/12/06 09:15:56;;;;;;;10.18;8.85;;;;;;;;;;6194096;23;20012;-85
2023/12/06 09:18:22;;;;;;;11.65;9.20;;;;;;;;;;6219181;23;20123;-85
2023/12/06 09:20:52;;;;;;;11.90;8.95;;;;;;;;;;6194850;23;20027;-84
2023/12/06 09:23:18;;;;;;;8.98;7.00;;;;;;;;;;6194799;23;20027;-85
2023/12/06 09:25:44;;;;;;;10.52;7.55;;;;;;;;;;6194293;23;20013;-86
2023/12/06 09:28:13;;;;;;;9.48;7.65;;;;;;;;;;6194557;23;20020;-86
2023/12/06 09:30:40;;;;;;;10.57;7.40;;;;;;;;;;6194471;23;20086;-86
2023/12/06 09:33:06;;;;;;;8.13;7.20;;;;;;;;;;6194230;23;20016;-87
2023/12/06 09:35:32;;;;;;;9.40;7.03;;;;;;;;;;6219366;23;20090;-85
2023/12/06 09:37:58;;;;;;;9.38;7.00;;;;;;;;;;6245870;23;20020;-87
2023/12/06 09:40:24;;;;;;;11.48;7.30;;;;;;;;;;6194255;23;20027;-85
2023/12/06 09:42:54;;;;;;;8.45;6.88;;;;;;;;;;6193886;23;20024;-85
2023/12/06 09:45:23;;;;;;;12.32;8.23;;;;;;;;;;6193660;23;20107;-85
2023/12/06 09:47:49;;;;;;;11.88;7.53;;;;;;;;;;6194145;23;20016;-87
2023/12/06 09:50:15;;;;;;;10.10;7.90;;;;;;;;;;6208895;23;20016;-87
2023/12/06 09:52:41;;;;;;;11.60;7.93;;;;;;;;;;6218023;23;20050;-87
2023/12/06 09:55:10;;;;;;;11.80;8.40;;;;;;;;;;6197205;23;20064;-85
2023/12/06 09:57:41;;;;;;;8.52;7.47;;;;;;;;;;6196091;23;20468;-84
2023/12/06 10:00:08;;;;;;;11.35;8.13;;;;;;;;;;6194772;23;20017;-85
2023/12/06 10:02:47;;;;;;;9.95;8.75;;;;;;;;;;6193548;23;20524;-85
2023/12/06 10:05:13;;;;;;;10.38;7.82;;;;;;;;;;6194626;23;20363;-84
2023/12/06 10:07:39;;;;;;;9.18;7.10;;;;;;;;;;6197084;23;20124;-83
2023/12/06 10:10:12;;;;;;;11.52;6.90;;;;;;;;;;6221010;23;20027;-84
2023/12/06 10:12:46;;;;;;;7.95;5.80;;;;;;;;;;6194629;23;20449;-85
2023/12/06 10:15:12;;;;;;;6.03;5.43;;;;;;;;;;6194077;23;20602;-84
2023/12/06 10:17:38;;;;;;;8.23;5.85;;;;;;;;;;6219825;23;20016;-85
2023/12/06 10:20:05;;;;;;;12.20;6.68;;;;;;;;;;6193273;23;20391;-84
2023/12/06 10:22:31;;;;;;;9.23;7.18;;;;;;;;;;6219115;23;20043;-85
2023/12/06 10:24:57;;;;;;;9.48;7.63;;;;;;;;;;6194294;23;20056;-85
2023/12/06 10:27:24;;;;;;;11.10;7.10;;;;;;;;;;6192997;23;20070;-84
2023/12/06 10:29:51;;;;;;;10.10;7.03;;;;;;;;;;6192939;23;20032;-86
2023/12/06 10:32:20;;;;;;;12.68;7.35;;;;;;;;;;6193745;23;20019;-86
2023/12/06 10:34:46;;;;;;;11.93;7.63;;;;;;;;;;6194062;23;20020;-86
2023/12/06 10:37:16;;;;;;;11.43;8.32;;;;;;;;;;6219319;23;20016;-86
2023/12/06 10:39:43;;;;;;;14.27;8.23;;;;;;;;;;6219093;23;20027;-86
2023/12/06 10:42:14;;;;;;;12.48;7.55;;;;;;;;;;6193571;23;20437;-86
2023/12/06 10:44:40;;;;;;;8.48;6.60;;;;;;;;;;6218567;23;20083;-86
2023/12/06 10:47:06;;;;;;;9.20;6.43;;;;;;;;;;6219098;23;20071;-84
2023/12/06 10:49:33;;;;;;;10.68;6.50;;;;;;;;;;6193221;23;20219;-86
2023/12/06 10:52:00;;;;;;;10.90;6.25;;;;;;;;;;6195450;23;20013;-86
2023/12/06 10:54:28;;;;;;;9.75;6.63;;;;;;;;;;6195894;23;20024;-86
2023/12/06 10:56:56;;;;;;;8.75;6.30;;;;;;;;;;6196062;23;20016;-87
2023/12/06 10:59:26;;;;;;;8.90;6.45;;;;;;;;;;6219807;23;20019;-86
2023/12/06 11:01:56;;;;;;;10.05;6.45;;;;;;;;;;6222341;23;20035;-88
2023/12/06 11:04:24;;;;;;;8.27;6.00;;;;;;;;;;6195521;23;20012;-84
2023/12/06 11:07:04;;;;;;;8.82;6.50;;;;;;;;;;6195229;23;20337;-84
2023/12/06 11:09:33;;;;;;;11.20;6.72;;;;;;;;;;6194902;23;20093;-84
2023/12/06 11:12:02;;;;;;;9.25;6.72;;;;;;;;;;6246984;23;20435;-85
2023/12/06 11:14:31;;;;;;;7.97;6.82;;;;;;;;;;6220089;23;20023;-84
2023/12/06 11:17:09;;;;;;;10.65;7.07;;;;;;;;;;6246685;23;20495;-84
2023/12/06 11:19:37;;;;;;;12.02;6.90;;;;;;;;;;6219996;23;20024;-84
2023/12/06 11:22:04;;;;;;;10.10;6.25;;;;;;;;;;6220806;23;20475;-84
2023/12/06 11:24:31;;;;;;;9.00;6.13;;;;;;;;;;6221440;23;20344;-84
2023/12/06 11:26:57;;;;;;;11.10;6.80;;;;;;;;;;6195562;23;20020;-84
2023/12/06 11:29:27;;;;;;;8.98;7.78;;;;;;;;;;6247562;23;20039;-84
2023/12/06 11:32:02;;;;;;;13.20;7.43;;;;;;;;;;6195190;23;20052;-84
2023/12/06 11:34:36;;;;;;;9.68;7.45;;;;;;;;;;6195993;23;20281;-84
2023/12/06 11:37:03;;;;;;;11.23;7.72;;;;;;;;;;6196349;23;20348;-85
2023/12/06 11:39:31;;;;;;;13.02;7.55;;;;;;;;;;6195418;23;20077;-85
2023/12/06 11:42:01;;;;;;;12.73;7.80;;;;;;;;;;6195209;23;20055;-84
2023/12/06 11:44:27;;;;;;;10.25;7.93;;;;;;;;;;6194383;23;20334;-85
2023/12/06 11:46:55;;;;;;;8.95;7.03;;;;;;;;;;6193683;23;20469;-86
2023/12/06 11:49:25;;;;;;;10.32;7.22;;;;;;;;;;6246584;23;20020;-86
2023/12/06 11:52:00;;;;;;;9.60;7.32;;;;;;;;;;6194396;23;20024;-86
2023/12/06 11:54:29;;;;;;;11.20;7.97;;;;;;;;;;6193991;23;20012;-86
2023/12/06 11:57:08;;;;;;;10.90;7.93;;;;;;;;;;6194502;23;20023;-86
2023/12/06 11:59:35;;;;;;;11.20;7.72;;;;;;;;;;6195109;23;20020;-85
2023/12/06 12:02:01;;;;;;;12.23;8.20;;;;;;;;;;6221044;23;20020;-85
2023/12/06 12:04:27;;;;;;;11.23;8.23;;;;;;;;;;6195586;23;20392;-85
2023/12/06 12:06:54;;;;;;;11.05;8.00;;;;;;;;;;6220590;23;20024;-85
2023/12/06 12:09:21;;;;;;;10.27;8.15;;;;;;;;;;6194546;23;20035;-85
2023/12/06 12:11:52;;;;;;;9.10;7.53;;;;;;;;;;6220169;23;20020;-85
2023/12/06 12:14:19;;;;;;;10.43;7.50;;;;;;;;;;6196336;23;20349;-85
2023/12/06 12:16:45;;;;;;;9.25;7.75;;;;;;;;;;6196267;23;20087;-86
2023/12/06 12:19:11;;;;;;;11.23;7.32;;;;;;;;;;6196420;23;20345;-86
2023/12/06 12:21:37;;;;;;;11.90;7.82;;;;;;;;;;6221756;23;20090;-86
2023/12/06 12:24:03;;;;;;;10.60;7.93;;;;;;;;;;6196756;23;20043;-85
2023/12/06 12:26:30;;;;;;;12.13;7.80;;;;;;;;;;6197077;23;20099;-85
2023/12/06 12:28:58;;;;;;;10.57;7.82;;;;;;;;;;6195869;23;20411;-86
2023/12/06 12:31:26;;;;;;;8.07;6.93;;;;;;;;;;6197667;23;20020;-87
2023/12/06 12:33:52;;;;;;;9.50;7.35;;;;;;;;;;6196378;23;20020;-86
2023/12/06 12:36:19;;;;;;;11.13;7.50;;;;;;;;;;6196103;23;20340;-85
2023/12/06 12:38:45;;;;;;;11.27;7.32;;;;;;;;;;6196477;23;20012;-87
2023/12/06 12:41:12;;;;;;;12.95;7.78;;;;;;;;;;6196149;23;20016;-86
2023/12/06 12:43:39;;;;;;;10.07;6.38;;;;;;;;;;6196335;23;20016;-85
2023/12/06 12:46:05;;;;;;;8.43;5.50;;;;;;;;;;6194473;23;20046;-85
2023/12/06 12:48:31;;;;;;;10.02;6.18;;;;;;;;;;6194589;23;20074;-85
2023/12/06 12:51:17;;;;;;;6.70;5.40;;;;;;;;;;6194383;23;20016;-85
2023/12/06 12:53:46;;;;;;;6.80;4.53;;;;;;;;;;6194223;23;20031;-86
2023/12/06 12:56:13;;;;;;;6.20;5.20;;;;;;;;;;6193938;23;20020;-87
2023/12/06 12:58:39;;;;;;;6.25;4.72;;;;;;;;;;6194248;23;20377;-85
2023/12/06 13:01:07;;;;;;;9.25;4.93;;;;;;;;;;6194126;23;20012;-86
2023/12/06 13:03:33;;;;;;;6.68;4.47;;;;;;;;;;6219190;23;20070;-86
2023/12/06 13:05:59;;;;;;;6.13;4.78;;;;;;;;;;6219366;23;20115;-86
2023/12/06 13:08:32;;;;;;;6.60;5.07;;;;;;;;;;6219282;23;20395;-85
2023/12/06 13:10:58;;;;;;;5.88;5.20;;;;;;;;;;6219934;23;20062;-86
2023/12/06 13:13:25;;;;;;;7.57;4.97;;;;;;;;;;6245235;23;20020;-86
2023/12/06 13:15:52;;;;;;;6.13;4.63;;;;;;;;;;6218246;23;20023;-85
2023/12/06 13:18:18;;;;;;;6.47;4.90;;;;;;;;;;6193662;23;20020;-86
2023/12/06 13:20:44;;;;;;;6.88;4.38;;;;;;;;;;6219061;23;20020;-86
2023/12/06 13:23:10;;;;;;;6.20;3.92;;;;;;;;;;6218699;23;20016;-85
2023/12/06 13:25:36;;;;;;;8.88;4.68;;;;;;;;;;6218584;23;20043;-85
2023/12/06 13:28:03;;;;;;;5.95;4.38;;;;;;;;;;6193677;23;20016;-86
2023/12/06 13:30:29;;;;;;;6.50;4.57;;;;;;;;;;6218347;23;20464;-86
2023/12/06 13:32:55;;;;;;;5.07;4.35;;;;;;;;;;6193466;23;20429;-85
2023/12/06 13:35:22;;;;;;;5.53;4.00;;;;;;;;;;6245990;23;20024;-85
2023/12/06 13:37:48;;;;;;;7.35;4.30;;;;;;;;;;6194183;23;20016;-84
2023/12/06 13:40:16;;;;;;;6.05;4.20;;;;;;;;;;6219819;23;20016;-87
2023/12/06 13:42:42;;;;;;;6.55;4.70;;;;;;;;;;6194545;23;20046;-86
2023/12/06 13:45:09;;;;;;;5.80;4.72;;;;;;;;;;6245357;23;20330;-85
2023/12/06 13:47:35;;;;;;;5.65;4.72;;;;;;;;;;6218304;23;20024;-86
2023/12/06 13:50:01;;;;;;;6.90;5.22;;;;;;;;;;6194035;23;20013;-85
2023/12/06 13:52:27;;;;;;;6.05;4.80;;;;;;;;;;6194949;23;20421;-84
2023/12/06 13:54:53;;;;;;;7.95;5.05;;;;;;;;;;6194231;23;20457;-85
2023/12/06 13:57:19;;;;;;;7.60;4.40;;;;;;;;;;6194645;23;20413;-86
2023/12/06 13:59:45;;;;;;;8.55;4.65;;;;;;;;;;6218995;23;20435;-86
2023/12/06 14:02:13;;;;;;;6.20;4.63;;;;;;;;;;6218809;23;20396;-86
2023/12/06 14:04:40;;;;;;;6.07;4.90;;;;;;;;;;6218970;23;20472;-86
2023/12/06 14:07:07;;;;;;;10.43;4.72;;;;;;;;;;6193953;23;20091;-86
2023/12/06 14:09:34;;;;;;;8.40;5.22;;;;;;;;;;6218383;23;20024;-86
2023/12/06 14:12:03;;;;;;;7.95;4.60;;;;;;;;;;6193932;23;20016;-85
2023/12/06 14:14:29;;;;;;;6.72;4.78;;;;;;;;;;6195937;23;20314;-84
2023/12/06 14:16:55;;;;;;;7.68;5.07;;;;;;;;;;6247709;22;20019;-84
2023/12/06 14:19:23;;;;;;;7.63;5.30;;;;;;;;;;6220662;23;20075;-84
2023/12/06 14:21:49;;;;;;;7.70;5.88;;;;;;;;;;6196156;23;20020;-84
2023/12/06 14:24:18;;;;;;;9.80;5.85;;;;;;;;;;6201805;23;20020;-83
2023/12/06 14:26:45;;;;;;;9.32;5.97;;;;;;;;;;6200363;23;20035;-85
2023/12/06 14:39:12;;;;;;;8.80;5.88;;;;;;;;;;6157657;23;20401;-83